This is the latest recevied weather packets stored in our database for station/object OK3MS-5. If no packets are shown the sender has not sent any weather packets the latest 10 day(s).
| Time | Temp. | Humidity | Pressure | Rain* | Wind** | Luminosity | Snow |
|---|---|---|---|---|---|---|---|
| 1777460405 | 12.22° C | 35% | 1023 hPa | 0 mm | - | 728 W/m² | - |
| 1777460105 | 11.67° C | 34% | 1023.2 hPa | 0 mm | - | 730 W/m² | - |
| 1777459803 | 11.67° C | 34% | 1023.2 hPa | 0 mm | - | 729 W/m² | - |
| 1777459504 | 11.67° C | 33% | 1023.2 hPa | 0 mm | - | 732 W/m² | - |
| 1777459206 | 11.67° C | 32% | 1023.2 hPa | 0 mm | - | 724 W/m² | - |
| 1777458904 | 11.11° C | 35% | 1023.3 hPa | 0 mm | - | 723 W/m² | - |
| 1777458603 | 11.67° C | 32% | 1023.3 hPa | 0 mm | - | 722 W/m² | - |
| 1777458303 | 11.67° C | 33% | 1023.3 hPa | 0 mm | - | 716 W/m² | - |
| 1777458005 | 11.67° C | 33% | 1023.4 hPa | 0 mm | - | 714 W/m² | - |
| 1777457704 | 11.67° C | 33% | 1023.4 hPa | 0 mm | - | 710 W/m² | - |
| 1777457404 | 11.11° C | 34% | 1023.5 hPa | 0 mm | - | 708 W/m² | - |
| 1777457104 | 11.67° C | 33% | 1023.4 hPa | 0 mm | - | 699 W/m² | - |
| 1777456802 | 11.67° C | 33% | 1023.4 hPa | 0 mm | - | 697 W/m² | - |
| 1777456508 | 11.11° C | 33% | 1023.5 hPa | 0 mm | - | 695 W/m² | - |
| 1777456203 | 11.11° C | 34% | 1023.7 hPa | 0 mm | - | 686 W/m² | - |
| 1777455907 | 11.67° C | 33% | 1023.7 hPa | 0 mm | - | 688 W/m² | - |
| 1777455606 | 11.11° C | 33% | 1023.8 hPa | 0 mm | - | 682 W/m² | - |
| 1777455304 | 10.56° C | 34% | 1023.8 hPa | 0 mm | - | 677 W/m² | - |
| 1777455002 | 11.11° C | 32% | 1023.6 hPa | 0 mm | - | 672 W/m² | - |
| 1777454705 | 11.11° C | 35% | 1023.8 hPa | 0 mm | - | 667 W/m² | - |
| 1777454405 | 11.11° C | 35% | 1023.8 hPa | 0 mm | - | 663 W/m² | - |
| 1777454102 | 11.11° C | 34% | 1023.8 hPa | 0 mm | - | 653 W/m² | - |
| 1777453803 | 10.56° C | 35% | 1023.8 hPa | 0 mm | - | 646 W/m² | - |
| 1777453506 | 11.11° C | 34% | 1023.9 hPa | 0 mm | - | 638 W/m² | - |
| 1777453205 | 10.56° C | 36% | 1023.8 hPa | 0 mm | - | 632 W/m² | - |
* Rain latest hour (hover to see other rain measurements)
** Current wind speed in m/s (hover to see current wind gust speed)